Weather observations for the past three days for
Colorado Air and Space Port Airport
Metric (Imperial)
Date Time (mdt) Wind (kph) Vis. (km) Weather Sky Cond. Temperature (ºC) Relative Humidity Wind Chill (°C) Heat Index (°C) Pressure Precipitation (cm)
Air Dwpt 6 hour altimeter (cm) sea level (mb) 1 hr 3 hr 6 hr
Max. Min.
05 10:47 N 19 G 28 16.09 Fair CLR 30 2 17% 28 76.56 0.0
05 09:47 NW 9 16.09 Fair CLR 28 3 20% 27 76.56 0.0
05 08:47 NW 9 16.09 Fair CLR 27 4 23% 26 76.56 0.0
05 07:47 SW 13 16.09 Fair CLR 23 7 36% 76.5 0.0
05 06:47 SW 19 16.09 Fair CLR 20 10 53% 76.45 0.0
05 06:35 SW 19 16.09 Fair CLR 20 9.9 52% 76.43 0.0
05 06:15 SW 17 16.09 Fair CLR 19.5 10.5 56% 76.43 0.0
05 05:55 SW 17 16.09 Fair CLR 20.1 10.5 23.9 20 54% 76.43 0.0
05 05:35 SW 17 16.09 Fair CLR 20.1 10.5 54% 76.43 0.0
05 05:15 SW 17 16.09 Fair CLR 20.2 10.5 54% 76.43 0.0
05 04:55 SW 22 16.09 Fair CLR 20.6 10.4 52% 76.43 0.0
05 04:35 SW 20 16.09 Fair CLR 20.8 10.4 52% 76.4 0.0
05 04:15 S 15 16.09 Fair CLR 21 10.3 51% 76.4 0.0
05 03:55 S 20 16.09 Fair CLR 21.5 10.3 49% 76.4 0.0
05 03:35 S 20 16.09 Fair CLR 21.8 10.3 48% 76.4 0.0
05 03:15 S 19 16.09 Fair CLR 21.7 10.3 48% 76.4 0.0
05 02:55 S 22 16.09 Fair CLR 21.8 10.2 48% 76.4 0.0
05 02:35 S 20 16.09 Fair CLR 21.9 10.1 47% 76.4 0.0
05 02:15 S 20 16.09 Fair CLR 21.6 10.1 48% 76.43 0.0
05 01:55 S 19 16.09 Fair CLR 21.7 10 47% 76.4 0.0
05 01:35 S 17 16.09 Fair CLR 21.4 10 48% 76.4 0.0
05 01:15 S 19 16.09 Fair CLR 22 9.7 46% 76.4 0.0
05 00:55 S 17 16.09 Fair CLR 22.1 9.5 45% 76.4 0.0
05 00:35 S 19 16.09 Fair CLR 22.9 9.2 42% 76.43 0.0
05 00:15 S 17 16.09 Partly Cloudy SCT120 23.7 8.9 39% 76.43 0.0
04 23:55 S 19 16.09 Mostly Cloudy BKN120 24.1 8.5 33.5 24.1 37% 25 76.4 0.0
04 23:35 S 19 16.09 Overcast OVC120 25 8.1 34% 26 76.38 0.0
04 23:15 S 22 16.09 Overcast OVC120 25.4 8.1 33% 26 76.38 0.0
04 22:55 S 22 16.09 Mostly Cloudy BKN120 26.2 8 32% 26 76.38 0.0
04 22:35 S 24 16.09 Fair CLR 25.7 7.5 31% 26 76.38 0.0
04 22:15 S 20 16.09 Partly Cloudy SCT120 26.7 7.1 29% 26 76.38 0.0
04 21:55 S 22 16.09 Partly Cloudy SCT120 27.5 6.7 27% 27 76.38 0.0
04 21:35 SE 13 16.09 Fair CLR 24.9 4.8 27% 25 76.38 0.0
04 21:15 SE 13 16.09 Fair CLR 24.5 4.5 27% 25 76.35 0.0
04 18:47 E 22 16.09 Fair CLR 32 1 14% 30 76.28 0.0
04 17:47 E 20 G 33 16.09 Fair CLR 33 1 13% 31 76.25 0.0
04 16:47 E 20 G 35 16.09 Fair CLR 34 1 12% 31 76.28 0.0
04 15:47 E 17 G 33 16.09 Fair CLR 34 0 11% 31 76.3 0.0
04 14:47 NE 19 G 28 16.09 Fair CLR 33 0 12% 31 76.35 0.0
04 13:47 E 13 16.09 Fair CLR 33 0 12% 31 76.4 0.0
04 12:47 Vrbl 7 16.09 Fair CLR 32 -1 12% 30 76.43 0.0
04 11:47 SE 15 16.09 Fair CLR 32 1 14% 30 76.48 0.0
04 10:47 S 6 16.09 Fair CLR 29 2 18% 27 76.48 0.0
04 09:47 Calm 16.09 Fair CLR 28 3 20% 27 76.45 0.0
04 08:47 SW 7 16.09 Fair CLR 26 4 24% 26 76.45 0.0
04 07:47 SW 13 16.09 Fair CLR 22 6 36% 76.43 0.0
04 06:47 SW 15 16.09 Fair CLR 18 6 46% 76.35 0.0
04 06:35 SW 17 16.09 Fair CLR 18.2 5.6 44% 76.35 0.0
04 06:15 W 17 16.09 Fair CLR 16.8 5.9 49% 76.33 0.0
04 05:55 W 15 16.09 Fair CLR 17.6 5.9 26.8 16.3 46% 76.33 0.0
04 05:35 W 13 16.09 Fair CLR 18.5 6 44% 76.3 0.0
04 05:15 W 13 16.09 Fair CLR 17.4 5.9 47% 76.28 0.0
04 04:55 W 15 16.09 Fair CLR 16.9 5.8 48% 76.28 0.0
04 04:35 W 17 16.09 Fair CLR 18.5 5.7 43% 76.28 0.0
04 04:15 W 15 16.09 Fair CLR 18.2 6.2 46% 76.25 0.0
04 03:55 SW 9 16.09 Fair CLR 19 6.5 44% 76.23 0.0
04 03:35 SW 7 16.09 Fair CLR 20.4 6.2 40% 76.23 0.0
04 03:15 SW 11 16.09 Fair CLR 19.6 6.6 43% 76.23 0.0
04 02:55 SE 11 16.09 Fair CLR 20.1 6.2 40% 76.2 0.0
04 02:35 S 6 16.09 Fair CLR 20.6 6 39% 76.23 0.0
04 02:15 S 6 16.09 Fair CLR 21.5 6 37% 76.23 0.0
04 01:55 S 15 16.09 Fair CLR 22.1 5.5 34% 76.23 0.0
04 01:35 S 13 16.09 Fair CLR 24.3 5.1 29% 25 76.25 0.0
04 01:15 S 7 16.09 Fair CLR 24.2 4.8 29% 25 76.25 0.0
04 00:55 SW 11 16.09 Fair CLR 24.2 4.5 28% 25 76.25 0.0
04 00:35 S 11 16.09 Fair CLR 25 4.3 26% 25 76.25 0.0
04 00:15 S 15 16.09 Fair CLR 25 3.2 24% 25 76.25 0.0
03 23:55 SW 20 G 35 16.09 Fair CLR 25.8 2.7 32.6 22.4 22% 25 76.25 0.0
03 23:35 SW 20 G 28 16.09 Fair CLR 25.5 2.4 22% 25 76.25 0.0
03 23:15 SW 22 16.09 Fair CLR 26.5 2.7 21% 26 76.25 0.0
03 22:55 S 20 G 28 16.09 Fair CLR 25.1 3.5 25% 25 76.25 0.0
03 22:35 S 17 16.09 Fair CLR 23 2.7 26% 76.25 0.0
03 22:15 S 17 16.09 Fair CLR 23 2.1 25% 76.25 0.0
03 21:55 SW 7 16.09 Fair CLR 23.3 2.5 26% 76.23 0.0
03 21:35 S 17 16.09 Fair CLR 23.3 2.7 26% 76.23 0.0
03 21:15 SE 19 16.09 Fair CLR 25 1.8 22% 25 76.2 0.0
03 18:47 E 24 G 33 16.09 Fair CLR 31 -1 13% 29 76.12 0.0
03 17:47 E 26 G 35 16.09 Fair CLR 33 -2 10% 31 76.15 0.0
03 16:47 E 24 G 37 16.09 Fair CLR 33 -1 11% 31 76.17 0.0
03 14:47 E 11 16.09 Fair CLR 33 -3 10% 31 76.25 0.0
03 11:47 Calm 16.09 Fair CLR 30 -1 13% 28 76.4 0.0
03 10:47 S 11 16.09 Fair CLR 29 1 16% 27 76.43 0.0
03 09:47 S 11 16.09 Fair CLR 27 3 21% 26 76.43 0.0
03 06:35 S 13 16.09 Fair CLR 14 9.4 74% 76.38 0.0
03 06:15 S 15 16.09 Fair CLR 13.8 9.5 75% 76.35 0.0
03 05:55 S 13 16.09 Fair CLR 14.3 9.5 20 14.2 73% 76.35 0.0
03 05:35 S 15 16.09 Fair CLR 14.8 9.6 71% 76.33 0.0
03 05:15 S 13 16.09 Fair CLR 14.7 9.8 73% 76.33 0.0
03 04:55 S 13 16.09 Fair CLR 14.2 9.8 75% 76.33 0.0
03 04:35 S 13 16.09 Fair CLR 14.7 9.7 72% 76.33 0.0
03 04:15 SW 9 16.09 Fair CLR 16.3 9.3 63% 76.35 0.0
03 03:55 SW 15 16.09 Fair CLR 17.2 9.3 60% 76.33 0.0
03 03:35 SW 15 16.09 Fair CLR 18.9 9.1 53% 76.35 0.0
03 03:15 SW 9 16.09 Fair CLR 17.6 9.8 60% 76.33 0.0
03 02:55 S 13 16.09 Fair CLR 17 10 64% 76.33 0.0
03 02:35 SW 15 16.09 Fair CLR 19 9.7 55% 76.33 0.0
03 02:15 SW 15 16.09 Fair CLR 17.8 10.1 61% 76.35 0.0
03 01:55 SW 15 16.09 Fair CLR 19.1 10 56% 76.35 0.0
03 01:35 SW 13 16.09 Fair CLR 18.3 10 59% 76.35 0.0
03 01:15 SW 9 16.09 Fair CLR 19.3 9.7 54% 76.35 0.0
03 00:55 SW 15 16.09 Fair CLR 19.6 10.2 55% 76.38 0.0
03 00:35 SW 11 16.09 Fair CLR 19.3 10.5 57% 76.38 0.0
03 00:15 SW 9 16.09 Partly Cloudy SCT120 19.5 10.9 58% 76.35 0.0
02 23:55 W 6 16.09 Partly Cloudy SCT120 18.5 12.1 30.4 17.6 66% 76.38 0.0
02 23:35 W 17 16.09 Fair CLR 18.1 12.1 68% 76.38 0.0
02 23:15 Calm 16.09 Fair CLR 18.8 11.8 64% 76.35 0.0
02 22:55 SE 9 16.09 Fair CLR 18.5 12 66% 76.38 0.0
02 22:35 E 9 16.09 Partly Cloudy SCT120 19.2 11.7 62% 76.38 0.0
02 22:15 NE 9 16.09 Fair CLR 19.2 12.6 66% 76.35 0.0
02 21:55 N 11 16.09 Partly Cloudy SCT120 19.6 12.6 64% 76.35 0.0
02 21:35 N 13 16.09 Overcast OVC110 20.4 12.2 59% 76.4 0.0
02 21:15 NW 9 16.09 Thunderstorm SCT055 SCT095 BKN110 21.4 10.5 50% 76.45 0.0
02 15:47 E 20 G 31 16.09 Fair CLR 32 4 17% 30 76.28 0.0
02 14:47 E 20 G 31 16.09 Fair CLR 32 4 17% 30 76.38 0.0
02 13:47 E 19 16.09 Partly Cloudy SCT085 31 4 18% 29 76.43 0.0
02 11:47 E 9 16.09 Fair CLR 29 2 18% 27 76.56 0.0
Date Time (mdt) Wind (kph) Vis. (km) Weather Sky Cond. Air Dwpt Max. Min. Relative Humidity Wind Chill (°C) Heat Index (°C) altimeter (cm) sea level (mb) 1 hr 3 hr 6 hr
6 hour
Temperature (ºC) Pressure Precipitation (cm)